sensor_id;sensor_type;location;lat;lon;timestamp;pressure;altitude;pressure_sealevel;temperature;humidity
63691;BME280;49837;57.280;27.070;2022-10-18T00:00:22;100423.99;;;7.85;99.63
63691;BME280;49837;57.280;27.070;2022-10-18T00:01:22;100414.65;;;7.83;99.81
63691;BME280;49837;57.280;27.070;2022-10-18T00:02:23;100412.59;;;7.81;99.88
63691;BME280;49837;57.280;27.070;2022-10-18T00:03:23;100409.36;;;7.82;100.0
63691;BME280;49837;57.280;27.070;2022-10-18T00:04:23;100407.11;;;7.82;100.0
63691;BME280;49837;57.280;27.070;2022-10-18T00:05:24;100408.42;;;7.82;100.0
63691;BME280;49837;57.280;27.070;2022-10-18T00:06:24;100401.73;;;7.79;100.0
63691;BME280;49837;57.280;27.070;2022-10-18T00:07:25;100404.78;;;7.81;100.0
63691;BME280;49837;57.280;27.070;2022-10-18T00:08:25;100397.27;;;7.78;100.0
63691;BME280;49837;57.280;27.070;2022-10-18T00:09:26;100394.78;;;7.78;100.0
63691;BME280;49837;57.280;27.070;2022-10-18T00:10:26;100395.63;;;7.78;100.0
63691;BME280;49837;57.280;27.070;2022-10-18T00:11:26;100400.38;;;7.76;100.0
63691;BME280;49837;57.280;27.070;2022-10-18T00:12:27;100397.36;;;7.78;100.0
63691;BME280;49837;57.280;27.070;2022-10-18T00:13:27;100406.38;;;7.8;100.0
63691;BME280;49837;57.280;27.070;2022-10-18T00:14:27;100415.44;;;7.84;100.0
63691;BME280;49837;57.280;27.070;2022-10-18T00:15:28;100421.73;;;7.87;100.0
63691;BME280;49837;57.280;27.070;2022-10-18T00:16:28;100412.2;;;7.9;99.81
63691;BME280;49837;57.280;27.070;2022-10-18T00:17:29;100394.21;;;7.89;99.64
63691;BME280;49837;57.280;27.070;2022-10-18T00:18:29;100379.75;;;7.89;99.7
63691;BME280;49837;57.280;27.070;2022-10-18T00:19:29;100375.73;;;7.87;100.0
63691;BME280;49837;57.280;27.070;2022-10-18T00:20:30;100368.66;;;7.81;100.0
63691;BME280;49837;57.280;27.070;2022-10-18T00:21:30;100367.34;;;7.74;100.0
63691;BME280;49837;57.280;27.070;2022-10-18T00:22:33;100363.73;;;7.73;100.0
63691;BME280;49837;57.280;27.070;2022-10-18T00:23:33;100358.94;;;7.72;100.0
63691;BME280;49837;57.280;27.070;2022-10-18T00:24:32;100350.36;;;7.74;100.0
63691;BME280;49837;57.280;27.070;2022-10-18T00:25:32;100340.17;;;7.71;100.0
63691;BME280;49837;57.280;27.070;2022-10-18T00:26:32;100339.3;;;7.73;100.0
63691;BME280;49837;57.280;27.070;2022-10-18T00:27:33;100333.43;;;7.72;100.0
63691;BME280;49837;57.280;27.070;2022-10-18T00:28:34;100331.94;;;7.72;100.0
63691;BME280;49837;57.280;27.070;2022-10-18T00:29:34;100321.79;;;7.73;100.0
63691;BME280;49837;57.280;27.070;2022-10-18T00:30:34;100305.39;;;7.72;100.0
63691;BME280;49837;57.280;27.070;2022-10-18T00:31:36;100302.28;;;7.69;100.0
63691;BME280;49837;57.280;27.070;2022-10-18T00:32:37;100296.78;;;7.69;100.0
63691;BME280;49837;57.280;27.070;2022-10-18T00:33:35;100292.0;;;7.68;100.0
63691;BME280;49837;57.280;27.070;2022-10-18T00:34:37;100286.08;;;7.64;100.0
63691;BME280;49837;57.280;27.070;2022-10-18T00:35:36;100287.1;;;7.62;100.0
63691;BME280;49837;57.280;27.070;2022-10-18T00:36:37;100291.15;;;7.64;100.0
63691;BME280;49837;57.280;27.070;2022-10-18T00:37:37;100281.0;;;7.65;100.0
63691;BME280;49837;57.280;27.070;2022-10-18T00:38:37;100276.3;;;7.69;100.0
63691;BME280;49837;57.280;27.070;2022-10-18T00:39:38;100271.92;;;7.72;100.0
63691;BME280;49837;57.280;27.070;2022-10-18T00:40:38;100269.12;;;7.75;100.0
63691;BME280;49837;57.280;27.070;2022-10-18T00:41:38;100269.62;;;7.76;100.0
63691;BME280;49837;57.280;27.070;2022-10-18T00:42:39;100263.45;;;7.78;100.0
63691;BME280;49837;57.280;27.070;2022-10-18T00:45:43;100257.16;;;7.77;100.0
63691;BME280;49837;57.280;27.070;2022-10-18T00:46:46;100255.82;;;7.76;100.0
63691;BME280;49837;57.280;27.070;2022-10-18T00:47:50;100244.62;;;7.76;100.0
63691;BME280;49837;57.280;27.070;2022-10-18T00:48:50;100238.16;;;7.76;100.0
63691;BME280;49837;57.280;27.070;2022-10-18T00:49:52;100230.38;;;7.73;100.0
63691;BME280;49837;57.280;27.070;2022-10-18T00:50:52;100227.5;;;7.72;100.0
63691;BME280;49837;57.280;27.070;2022-10-18T00:52:59;100206.75;;;7.68;100.0
63691;BME280;49837;57.280;27.070;2022-10-18T00:53:58;100208.81;;;7.63;100.0
63691;BME280;49837;57.280;27.070;2022-10-18T00:54:58;100205.68;;;7.66;100.0
63691;BME280;49837;57.280;27.070;2022-10-18T00:55:58;100209.56;;;7.68;100.0
63691;BME280;49837;57.280;27.070;2022-10-18T00:56:59;100208.58;;;7.67;100.0
63691;BME280;49837;57.280;27.070;2022-10-18T00:58:00;100212.66;;;7.66;100.0
63691;BME280;49837;57.280;27.070;2022-10-18T00:59:00;100218.02;;;7.69;100.0
63691;BME280;49837;57.280;27.070;2022-10-18T01:00:00;100217.59;;;7.65;100.0
63691;BME280;49837;57.280;27.070;2022-10-18T01:01:00;100219.5;;;7.64;100.0
63691;BME280;49837;57.280;27.070;2022-10-18T01:02:01;100222.58;;;7.64;100.0
63691;BME280;49837;57.280;27.070;2022-10-18T01:03:01;100218.38;;;7.67;100.0
63691;BME280;49837;57.280;27.070;2022-10-18T01:04:02;100215.28;;;7.69;100.0
63691;BME280;49837;57.280;27.070;2022-10-18T01:05:03;100214.64;;;7.72;100.0
63691;BME280;49837;57.280;27.070;2022-10-18T01:06:03;100217.69;;;7.74;100.0
63691;BME280;49837;57.280;27.070;2022-10-18T01:10:24;100206.3;;;7.7;100.0
63691;BME280;49837;57.280;27.070;2022-10-18T01:21:49;100126.23;;;7.71;100.0
63691;BME280;49837;57.280;27.070;2022-10-18T01:22:55;100119.59;;;7.67;100.0
63691;BME280;49837;57.280;27.070;2022-10-18T01:32:15;100071.2;;;7.59;100.0
63691;BME280;49837;57.280;27.070;2022-10-18T01:34:20;100069.05;;;7.58;100.0
63691;BME280;49837;57.280;27.070;2022-10-18T01:37:30;100076.03;;;7.62;100.0
63691;BME280;49837;57.280;27.070;2022-10-18T01:38:30;100073.55;;;7.62;100.0
63691;BME280;49837;57.280;27.070;2022-10-18T01:39:34;100072.69;;;7.67;100.0
63691;BME280;49837;57.280;27.070;2022-10-18T01:40:34;100063.62;;;7.72;100.0
63691;BME280;49837;57.280;27.070;2022-10-18T01:41:34;100053.39;;;7.7;100.0
63691;BME280;49837;57.280;27.070;2022-10-18T01:42:34;100048.23;;;7.61;100.0
63691;BME280;49837;57.280;27.070;2022-10-18T01:43:34;100043.67;;;7.58;100.0
63691;BME280;49837;57.280;27.070;2022-10-18T01:44:35;100057.37;;;7.61;100.0
63691;BME280;49837;57.280;27.070;2022-10-18T01:45:35;100059.58;;;7.68;100.0
63691;BME280;49837;57.280;27.070;2022-10-18T01:46:36;100056.65;;;7.72;100.0
63691;BME280;49837;57.280;27.070;2022-10-18T01:47:36;100051.2;;;7.74;100.0
63691;BME280;49837;57.280;27.070;2022-10-18T01:48:36;100032.56;;;7.74;100.0
63691;BME280;49837;57.280;27.070;2022-10-18T01:49:36;100014.53;;;7.73;100.0
63691;BME280;49837;57.280;27.070;2022-10-18T01:50:37;99999.52;;;7.7;100.0
63691;BME280;49837;57.280;27.070;2022-10-18T01:51:37;99994.52;;;7.66;100.0
63691;BME280;49837;57.280;27.070;2022-10-18T01:53:42;99974.66;;;7.63;100.0
63691;BME280;49837;57.280;27.070;2022-10-18T01:54:45;99963.91;;;7.61;100.0
63691;BME280;49837;57.280;27.070;2022-10-18T02:03:14;99947.17;;;7.53;100.0
63691;BME280;49837;57.280;27.070;2022-10-18T02:07:22;99931.36;;;7.46;100.0
63691;BME280;49837;57.280;27.070;2022-10-18T02:11:22;99934.48;;;7.51;100.0
63691;BME280;49837;57.280;27.070;2022-10-18T02:12:23;99941.0;;;7.5;100.0
63691;BME280;49837;57.280;27.070;2022-10-18T02:13:26;99943.57;;;7.54;100.0
63691;BME280;49837;57.280;27.070;2022-10-18T02:14:26;99936.3;;;7.51;100.0
63691;BME280;49837;57.280;27.070;2022-10-18T02:15:31;99931.87;;;7.5;100.0
63691;BME280;49837;57.280;27.070;2022-10-18T02:17:31;99935.41;;;7.43;100.0
63691;BME280;49837;57.280;27.070;2022-10-18T02:18:38;99939.92;;;7.46;100.0
63691;BME280;49837;57.280;27.070;2022-10-18T02:19:37;99943.91;;;7.49;100.0
63691;BME280;49837;57.280;27.070;2022-10-18T02:20:37;99943.85;;;7.53;100.0
63691;BME280;49837;57.280;27.070;2022-10-18T02:21:37;99938.88;;;7.48;100.0
63691;BME280;49837;57.280;27.070;2022-10-18T02:22:38;99934.81;;;7.43;100.0
63691;BME280;49837;57.280;27.070;2022-10-18T02:23:38;99932.99;;;7.44;100.0
63691;BME280;49837;57.280;27.070;2022-10-18T02:24:41;99926.34;;;7.4;100.0
63691;BME280;49837;57.280;27.070;2022-10-18T02:25:40;99922.24;;;7.41;100.0
63691;BME280;49837;57.280;27.070;2022-10-18T02:26:41;99923.31;;;7.42;100.0
63691;BME280;49837;57.280;27.070;2022-10-18T02:27:41;99926.85;;;7.44;100.0
63691;BME280;49837;57.280;27.070;2022-10-18T02:28:42;99931.83;;;7.43;100.0
63691;BME280;49837;57.280;27.070;2022-10-18T02:29:42;99926.55;;;7.46;100.0
63691;BME280;49837;57.280;27.070;2022-10-18T02:31:55;99917.14;;;7.48;100.0
63691;BME280;49837;57.280;27.070;2022-10-18T02:36:04;99919.09;;;7.5;100.0
63691;BME280;49837;57.280;27.070;2022-10-18T02:37:03;99921.91;;;7.5;100.0
63691;BME280;49837;57.280;27.070;2022-10-18T02:38:04;99921.51;;;7.52;100.0
63691;BME280;49837;57.280;27.070;2022-10-18T02:40:09;99919.55;;;7.6;100.0
63691;BME280;49837;57.280;27.070;2022-10-18T02:41:08;99910.95;;;7.61;100.0
63691;BME280;49837;57.280;27.070;2022-10-18T02:42:09;99910.36;;;7.62;100.0
63691;BME280;49837;57.280;27.070;2022-10-18T02:43:09;99899.29;;;7.63;100.0
63691;BME280;49837;57.280;27.070;2022-10-18T02:44:09;99905.27;;;7.59;100.0
63691;BME280;49837;57.280;27.070;2022-10-18T02:45:10;99906.83;;;7.6;100.0
63691;BME280;49837;57.280;27.070;2022-10-18T02:46:10;99905.91;;;7.68;100.0
63691;BME280;49837;57.280;27.070;2022-10-18T02:47:11;99904.38;;;7.7;100.0
63691;BME280;49837;57.280;27.070;2022-10-18T02:48:11;99898.83;;;7.66;100.0
63691;BME280;49837;57.280;27.070;2022-10-18T02:49:11;99894.34;;;7.66;100.0
63691;BME280;49837;57.280;27.070;2022-10-18T02:50:12;99890.23;;;7.68;100.0
63691;BME280;49837;57.280;27.070;2022-10-18T02:51:12;99886.39;;;7.65;100.0
63691;BME280;49837;57.280;27.070;2022-10-18T02:52:12;99888.2;;;7.7;100.0
63691;BME280;49837;57.280;27.070;2022-10-18T02:53:13;99878.22;;;7.7;100.0
63691;BME280;49837;57.280;27.070;2022-10-18T02:54:13;99874.19;;;7.69;100.0
63691;BME280;49837;57.280;27.070;2022-10-18T02:55:14;99872.77;;;7.66;100.0
63691;BME280;49837;57.280;27.070;2022-10-18T02:56:14;99871.55;;;7.64;100.0
63691;BME280;49837;57.280;27.070;2022-10-18T02:57:14;99871.65;;;7.68;100.0
63691;BME280;49837;57.280;27.070;2022-10-18T02:58:15;99867.98;;;7.72;100.0
63691;BME280;49837;57.280;27.070;2022-10-18T02:59:15;99864.88;;;7.74;100.0
63691;BME280;49837;57.280;27.070;2022-10-18T03:00:16;99857.88;;;7.74;100.0
63691;BME280;49837;57.280;27.070;2022-10-18T03:01:16;99852.58;;;7.73;100.0
63691;BME280;49837;57.280;27.070;2022-10-18T03:02:16;99849.91;;;7.71;100.0
63691;BME280;49837;57.280;27.070;2022-10-18T03:03:17;99844.64;;;7.69;100.0
63691;BME280;49837;57.280;27.070;2022-10-18T03:04:17;99841.48;;;7.69;100.0
63691;BME280;49837;57.280;27.070;2022-10-18T03:05:18;99840.25;;;7.69;100.0
63691;BME280;49837;57.280;27.070;2022-10-18T03:06:18;99835.27;;;7.72;100.0
63691;BME280;49837;57.280;27.070;2022-10-18T03:07:18;99831.28;;;7.72;100.0
63691;BME280;49837;57.280;27.070;2022-10-18T03:08:19;99829.5;;;7.73;100.0
63691;BME280;49837;57.280;27.070;2022-10-18T03:09:19;99825.36;;;7.74;100.0
63691;BME280;49837;57.280;27.070;2022-10-18T03:10:20;99820.09;;;7.74;100.0
63691;BME280;49837;57.280;27.070;2022-10-18T03:11:20;99816.17;;;7.76;100.0
63691;BME280;49837;57.280;27.070;2022-10-18T03:12:21;99812.62;;;7.71;100.0
63691;BME280;49837;57.280;27.070;2022-10-18T03:13:21;99809.06;;;7.68;100.0
63691;BME280;49837;57.280;27.070;2022-10-18T03:14:21;99808.69;;;7.66;100.0
63691;BME280;49837;57.280;27.070;2022-10-18T03:15:22;99808.33;;;7.7;100.0
63691;BME280;49837;57.280;27.070;2022-10-18T03:16:22;99804.86;;;7.7;100.0
63691;BME280;49837;57.280;27.070;2022-10-18T03:17:22;99805.14;;;7.71;100.0
63691;BME280;49837;57.280;27.070;2022-10-18T03:18:23;99804.15;;;7.75;100.0
63691;BME280;49837;57.280;27.070;2022-10-18T03:19:24;99808.34;;;7.76;100.0
63691;BME280;49837;57.280;27.070;2022-10-18T03:20:24;99806.78;;;7.79;100.0
63691;BME280;49837;57.280;27.070;2022-10-18T03:21:24;99803.17;;;7.81;100.0
63691;BME280;49837;57.280;27.070;2022-10-18T03:22:24;99796.65;;;7.83;100.0
63691;BME280;49837;57.280;27.070;2022-10-18T03:23:25;99798.0;;;7.86;100.0
63691;BME280;49837;57.280;27.070;2022-10-18T03:24:25;99796.67;;;7.86;100.0
63691;BME280;49837;57.280;27.070;2022-10-18T03:25:26;99797.12;;;7.88;100.0
63691;BME280;49837;57.280;27.070;2022-10-18T03:26:26;99793.42;;;7.86;100.0
63691;BME280;49837;57.280;27.070;2022-10-18T03:27:26;99791.66;;;7.87;100.0
63691;BME280;49837;57.280;27.070;2022-10-18T03:28:27;99791.23;;;7.87;100.0
63691;BME280;49837;57.280;27.070;2022-10-18T03:29:27;99789.09;;;7.84;100.0
63691;BME280;49837;57.280;27.070;2022-10-18T03:30:28;99791.42;;;7.86;100.0
63691;BME280;49837;57.280;27.070;2022-10-18T03:31:28;99783.38;;;7.85;100.0
63691;BME280;49837;57.280;27.070;2022-10-18T03:32:29;99782.25;;;7.84;100.0
63691;BME280;49837;57.280;27.070;2022-10-18T03:33:30;99782.34;;;7.84;100.0
63691;BME280;49837;57.280;27.070;2022-10-18T03:34:29;99783.03;;;7.83;100.0
63691;BME280;49837;57.280;27.070;2022-10-18T03:35:30;99782.33;;;7.85;100.0
63691;BME280;49837;57.280;27.070;2022-10-18T03:36:30;99784.23;;;7.88;100.0
63691;BME280;49837;57.280;27.070;2022-10-18T03:37:31;99782.53;;;7.91;100.0
63691;BME280;49837;57.280;27.070;2022-10-18T03:38:31;99780.2;;;7.91;100.0
63691;BME280;49837;57.280;27.070;2022-10-18T03:39:31;99780.48;;;7.93;100.0
63691;BME280;49837;57.280;27.070;2022-10-18T03:40:32;99777.0;;;7.93;100.0
63691;BME280;49837;57.280;27.070;2022-10-18T03:41:32;99773.41;;;7.93;100.0
63691;BME280;49837;57.280;27.070;2022-10-18T03:42:33;99768.33;;;7.96;100.0
63691;BME280;49837;57.280;27.070;2022-10-18T03:43:33;99771.22;;;7.97;100.0
63691;BME280;49837;57.280;27.070;2022-10-18T03:44:33;99766.81;;;7.98;100.0
63691;BME280;49837;57.280;27.070;2022-10-18T03:45:34;99770.98;;;8.0;100.0
63691;BME280;49837;57.280;27.070;2022-10-18T03:46:34;99773.3;;;8.0;100.0
63691;BME280;49837;57.280;27.070;2022-10-18T03:47:35;99771.12;;;8.01;100.0
63691;BME280;49837;57.280;27.070;2022-10-18T03:48:35;99776.03;;;8.01;100.0
63691;BME280;49837;57.280;27.070;2022-10-18T03:49:35;99775.38;;;8.01;100.0
63691;BME280;49837;57.280;27.070;2022-10-18T03:50:36;99771.69;;;8.02;100.0
63691;BME280;49837;57.280;27.070;2022-10-18T03:51:36;99770.31;;;8.04;100.0
63691;BME280;49837;57.280;27.070;2022-10-18T03:52:37;99775.91;;;8.06;100.0
63691;BME280;49837;57.280;27.070;2022-10-18T03:53:37;99773.81;;;8.06;100.0
63691;BME280;49837;57.280;27.070;2022-10-18T03:54:38;99768.53;;;8.06;100.0
63691;BME280;49837;57.280;27.070;2022-10-18T03:55:38;99768.77;;;8.06;100.0
63691;BME280;49837;57.280;27.070;2022-10-18T03:56:38;99766.42;;;8.03;100.0
63691;BME280;49837;57.280;27.070;2022-10-18T03:57:39;99763.78;;;8.02;100.0
63691;BME280;49837;57.280;27.070;2022-10-18T03:58:39;99759.97;;;8.02;100.0
63691;BME280;49837;57.280;27.070;2022-10-18T03:59:40;99761.37;;;8.03;100.0
63691;BME280;49837;57.280;27.070;2022-10-18T04:00:40;99763.5;;;8.04;100.0
63691;BME280;49837;57.280;27.070;2022-10-18T04:01:40;99759.02;;;8.04;100.0
63691;BME280;49837;57.280;27.070;2022-10-18T04:02:41;99758.99;;;8.05;100.0
63691;BME280;49837;57.280;27.070;2022-10-18T04:03:41;99759.53;;;8.06;100.0
63691;BME280;49837;57.280;27.070;2022-10-18T04:04:42;99756.11;;;8.06;100.0
63691;BME280;49837;57.280;27.070;2022-10-18T04:05:43;99751.32;;;8.06;100.0
63691;BME280;49837;57.280;27.070;2022-10-18T04:06:42;99746.34;;;8.06;100.0
63691;BME280;49837;57.280;27.070;2022-10-18T04:07:43;99748.27;;;8.06;100.0
63691;BME280;49837;57.280;27.070;2022-10-18T04:08:43;99739.57;;;8.07;100.0
63691;BME280;49837;57.280;27.070;2022-10-18T04:09:44;99736.97;;;8.06;100.0
63691;BME280;49837;57.280;27.070;2022-10-18T04:10:44;99737.52;;;8.03;100.0
63691;BME280;49837;57.280;27.070;2022-10-18T04:11:44;99733.96;;;8.03;100.0
63691;BME280;49837;57.280;27.070;2022-10-18T04:12:45;99738.33;;;8.04;100.0
63691;BME280;49837;57.280;27.070;2022-10-18T04:13:45;99738.75;;;8.04;100.0
63691;BME280;49837;57.280;27.070;2022-10-18T04:14:46;99737.75;;;8.04;100.0
63691;BME280;49837;57.280;27.070;2022-10-18T04:15:46;99737.27;;;8.06;100.0
63691;BME280;49837;57.280;27.070;2022-10-18T04:16:46;99740.71;;;8.09;100.0
63691;BME280;49837;57.280;27.070;2022-10-18T04:17:47;99736.03;;;8.09;100.0
63691;BME280;49837;57.280;27.070;2022-10-18T04:18:47;99736.81;;;8.11;100.0
63691;BME280;49837;57.280;27.070;2022-10-18T04:19:48;99737.19;;;8.13;100.0
63691;BME280;49837;57.280;27.070;2022-10-18T04:20:48;99736.69;;;8.13;100.0
63691;BME280;49837;57.280;27.070;2022-10-18T04:21:49;99735.3;;;8.15;100.0
63691;BME280;49837;57.280;27.070;2022-10-18T04:22:50;99738.55;;;8.14;100.0
63691;BME280;49837;57.280;27.070;2022-10-18T04:23:49;99739.86;;;8.16;100.0
63691;BME280;49837;57.280;27.070;2022-10-18T04:24:50;99739.59;;;8.16;100.0
63691;BME280;49837;57.280;27.070;2022-10-18T04:25:50;99737.38;;;8.18;100.0
63691;BME280;49837;57.280;27.070;2022-10-18T04:26:51;99740.47;;;8.17;100.0
63691;BME280;49837;57.280;27.070;2022-10-18T04:27:51;99734.2;;;8.15;100.0
63691;BME280;49837;57.280;27.070;2022-10-18T04:28:51;99733.14;;;8.15;100.0
63691;BME280;49837;57.280;27.070;2022-10-18T04:29:52;99732.71;;;8.15;100.0
63691;BME280;49837;57.280;27.070;2022-10-18T04:30:52;99735.54;;;8.16;100.0
63691;BME280;49837;57.280;27.070;2022-10-18T04:31:53;99734.61;;;8.16;100.0
63691;BME280;49837;57.280;27.070;2022-10-18T04:32:53;99733.14;;;8.15;100.0
63691;BME280;49837;57.280;27.070;2022-10-18T04:33:54;99732.64;;;8.15;100.0
63691;BME280;49837;57.280;27.070;2022-10-18T04:34:54;99728.34;;;8.17;100.0
63691;BME280;49837;57.280;27.070;2022-10-18T04:35:54;99729.05;;;8.19;100.0
63691;BME280;49837;57.280;27.070;2022-10-18T04:36:55;99722.73;;;8.19;100.0
63691;BME280;49837;57.280;27.070;2022-10-18T04:37:55;99721.98;;;8.16;100.0
63691;BME280;49837;57.280;27.070;2022-10-18T04:38:56;99724.73;;;8.09;100.0
63691;BME280;49837;57.280;27.070;2022-10-18T04:39:56;99730.22;;;8.09;100.0
63691;BME280;49837;57.280;27.070;2022-10-18T04:40:56;99728.53;;;8.1;100.0
63691;BME280;49837;57.280;27.070;2022-10-18T04:41:57;99725.75;;;8.12;100.0
63691;BME280;49837;57.280;27.070;2022-10-18T04:42:57;99723.27;;;8.14;100.0
63691;BME280;49837;57.280;27.070;2022-10-18T04:43:58;99721.9;;;8.13;100.0
63691;BME280;49837;57.280;27.070;2022-10-18T04:44:58;99722.33;;;8.13;100.0
63691;BME280;49837;57.280;27.070;2022-10-18T04:45:58;99721.29;;;8.17;100.0
63691;BME280;49837;57.280;27.070;2022-10-18T04:46:59;99721.33;;;8.18;100.0
63691;BME280;49837;57.280;27.070;2022-10-18T04:47:59;99723.63;;;8.19;100.0
63691;BME280;49837;57.280;27.070;2022-10-18T04:49:00;99721.07;;;8.19;100.0
63691;BME280;49837;57.280;27.070;2022-10-18T04:50:00;99721.19;;;8.21;100.0
63691;BME280;49837;57.280;27.070;2022-10-18T04:51:00;99719.16;;;8.22;100.0
63691;BME280;49837;57.280;27.070;2022-10-18T04:52:01;99716.55;;;8.23;100.0
63691;BME280;49837;57.280;27.070;2022-10-18T04:53:02;99720.2;;;8.24;100.0
63691;BME280;49837;57.280;27.070;2022-10-18T04:54:02;99723.7;;;8.26;100.0
63691;BME280;49837;57.280;27.070;2022-10-18T04:55:03;99717.3;;;8.29;100.0
63691;BME280;49837;57.280;27.070;2022-10-18T04:56:03;99716.85;;;8.31;100.0
63691;BME280;49837;57.280;27.070;2022-10-18T04:57:03;99715.16;;;8.38;100.0
63691;BME280;49837;57.280;27.070;2022-10-18T04:58:03;99711.12;;;8.42;100.0
63691;BME280;49837;57.280;27.070;2022-10-18T04:59:04;99717.15;;;8.51;100.0
63691;BME280;49837;57.280;27.070;2022-10-18T05:00:05;99716.48;;;8.51;100.0
63691;BME280;49837;57.280;27.070;2022-10-18T05:01:06;99714.88;;;8.58;100.0
63691;BME280;49837;57.280;27.070;2022-10-18T05:02:05;99719.69;;;8.61;100.0
63691;BME280;49837;57.280;27.070;2022-10-18T05:03:06;99711.67;;;8.62;100.0
63691;BME280;49837;57.280;27.070;2022-10-18T05:04:06;99712.56;;;8.66;100.0
63691;BME280;49837;57.280;27.070;2022-10-18T05:05:07;99714.89;;;8.68;100.0
63691;BME280;49837;57.280;27.070;2022-10-18T05:06:10;99720.12;;;8.72;100.0
63691;BME280;49837;57.280;27.070;2022-10-18T05:07:10;99715.04;;;8.72;100.0
63691;BME280;49837;57.280;27.070;2022-10-18T05:08:11;99715.48;;;8.74;100.0
63691;BME280;49837;57.280;27.070;2022-10-18T05:09:11;99718.38;;;8.77;100.0
63691;BME280;49837;57.280;27.070;2022-10-18T05:10:11;99716.59;;;8.79;100.0
63691;BME280;49837;57.280;27.070;2022-10-18T05:11:12;99720.56;;;8.83;100.0
63691;BME280;49837;57.280;27.070;2022-10-18T05:12:12;99719.61;;;8.84;100.0
63691;BME280;49837;57.280;27.070;2022-10-18T05:13:13;99723.51;;;8.87;100.0
63691;BME280;49837;57.280;27.070;2022-10-18T05:14:13;99729.1;;;8.89;100.0
63691;BME280;49837;57.280;27.070;2022-10-18T05:15:14;99725.91;;;8.9;100.0
63691;BME280;49837;57.280;27.070;2022-10-18T05:16:14;99723.88;;;8.97;100.0
63691;BME280;49837;57.280;27.070;2022-10-18T05:17:14;99729.07;;;9.0;100.0
63691;BME280;49837;57.280;27.070;2022-10-18T05:18:15;99725.52;;;9.03;100.0
63691;BME280;49837;57.280;27.070;2022-10-18T05:19:15;99721.29;;;9.02;100.0
63691;BME280;49837;57.280;27.070;2022-10-18T05:20:16;99724.5;;;9.06;100.0
63691;BME280;49837;57.280;27.070;2022-10-18T05:21:16;99719.98;;;9.1;100.0
63691;BME280;49837;57.280;27.070;2022-10-18T05:22:16;99716.66;;;9.12;100.0
63691;BME280;49837;57.280;27.070;2022-10-18T05:23:17;99717.12;;;9.14;100.0
63691;BME280;49837;57.280;27.070;2022-10-18T05:24:17;99716.73;;;9.16;100.0
63691;BME280;49837;57.280;27.070;2022-10-18T05:25:18;99716.95;;;9.14;100.0
63691;BME280;49837;57.280;27.070;2022-10-18T05:26:18;99723.77;;;9.22;100.0
63691;BME280;49837;57.280;27.070;2022-10-18T05:27:19;99726.33;;;9.23;100.0
63691;BME280;49837;57.280;27.070;2022-10-18T05:28:19;99725.8;;;9.26;100.0
63691;BME280;49837;57.280;27.070;2022-10-18T05:29:20;99729.2;;;9.29;100.0
63691;BME280;49837;57.280;27.070;2022-10-18T05:30:21;99730.8;;;9.33;100.0
63691;BME280;49837;57.280;27.070;2022-10-18T05:31:21;99723.59;;;9.38;100.0
63691;BME280;49837;57.280;27.070;2022-10-18T05:32:21;99723.72;;;9.36;100.0
63691;BME280;49837;57.280;27.070;2022-10-18T05:33:22;99727.94;;;9.35;100.0
63691;BME280;49837;57.280;27.070;2022-10-18T05:34:22;99731.21;;;9.39;100.0
63691;BME280;49837;57.280;27.070;2022-10-18T05:35:23;99729.48;;;9.38;100.0
63691;BME280;49837;57.280;27.070;2022-10-18T05:36:23;99729.12;;;9.45;100.0
63691;BME280;49837;57.280;27.070;2022-10-18T05:37:24;99725.03;;;9.51;100.0
63691;BME280;49837;57.280;27.070;2022-10-18T05:38:24;99724.2;;;9.52;100.0
63691;BME280;49837;57.280;27.070;2022-10-18T05:39:25;99729.59;;;9.54;100.0
63691;BME280;49837;57.280;27.070;2022-10-18T05:40:25;99728.3;;;9.6;100.0
63691;BME280;49837;57.280;27.070;2022-10-18T05:41:26;99731.7;;;9.66;100.0
63691;BME280;49837;57.280;27.070;2022-10-18T05:42:26;99732.53;;;9.68;100.0
63691;BME280;49837;57.280;27.070;2022-10-18T05:43:27;99729.86;;;9.73;100.0
63691;BME280;49837;57.280;27.070;2022-10-18T05:44:27;99735.02;;;9.9;100.0
63691;BME280;49837;57.280;27.070;2022-10-18T05:45:27;99733.22;;;9.89;100.0
63691;BME280;49837;57.280;27.070;2022-10-18T05:46:28;99740.38;;;9.92;100.0
63691;BME280;49837;57.280;27.070;2022-10-18T05:47:28;99732.28;;;9.98;100.0
63691;BME280;49837;57.280;27.070;2022-10-18T05:48:28;99732.5;;;10.03;100.0
63691;BME280;49837;57.280;27.070;2022-10-18T05:49:29;99732.53;;;10.12;100.0
63691;BME280;49837;57.280;27.070;2022-10-18T05:50:29;99733.03;;;10.26;100.0
63691;BME280;49837;57.280;27.070;2022-10-18T05:51:32;99735.72;;;10.31;100.0
63691;BME280;49837;57.280;27.070;2022-10-18T05:52:33;99731.39;;;10.4;100.0
63691;BME280;49837;57.280;27.070;2022-10-18T05:53:33;99736.62;;;10.41;100.0
63691;BME280;49837;57.280;27.070;2022-10-18T05:54:34;99738.2;;;10.51;100.0
63691;BME280;49837;57.280;27.070;2022-10-18T05:55:34;99737.84;;;10.56;100.0
63691;BME280;49837;57.280;27.070;2022-10-18T05:56:35;99735.97;;;10.6;100.0
63691;BME280;49837;57.280;27.070;2022-10-18T05:57:35;99742.04;;;10.69;100.0
63691;BME280;49837;57.280;27.070;2022-10-18T05:58:35;99750.92;;;10.75;100.0
63691;BME280;49837;57.280;27.070;2022-10-18T05:59:36;99751.21;;;10.85;100.0
63691;BME280;49837;57.280;27.070;2022-10-18T06:00:36;99755.45;;;10.83;100.0
63691;BME280;49837;57.280;27.070;2022-10-18T06:01:41;99752.46;;;10.9;100.0
63691;BME280;49837;57.280;27.070;2022-10-18T06:02:38;99750.52;;;11.06;100.0
63691;BME280;49837;57.280;27.070;2022-10-18T06:03:39;99750.86;;;11.16;100.0
63691;BME280;49837;57.280;27.070;2022-10-18T06:04:39;99756.88;;;11.16;100.0
63691;BME280;49837;57.280;27.070;2022-10-18T06:05:40;99753.77;;;11.21;100.0
63691;BME280;49837;57.280;27.070;2022-10-18T06:06:40;99755.41;;;11.22;100.0
63691;BME280;49837;57.280;27.070;2022-10-18T06:07:40;99758.97;;;11.28;100.0
63691;BME280;49837;57.280;27.070;2022-10-18T06:08:42;99757.27;;;11.23;100.0
63691;BME280;49837;57.280;27.070;2022-10-18T06:09:41;99760.31;;;11.33;100.0